createdAt,value
2022-12-18T00:09:40.027Z,102054.94
2022-12-18T00:19:43.429Z,102050.91
2022-12-18T00:29:48.003Z,102062.81
2022-12-18T00:39:52.185Z,102058.34
2022-12-18T00:49:57.824Z,102067.44
2022-12-18T01:00:00.882Z,102068.00
2022-12-18T01:10:06.853Z,102057.94
2022-12-18T01:20:14.283Z,102058.34
2022-12-18T01:30:19.119Z,102063.09
2022-12-18T01:40:22.152Z,102057.09
2022-12-18T01:50:34.907Z,102057.56
2022-12-18T02:00:38.032Z,102035.38
2022-12-18T02:10:50.700Z,102036.56
2022-12-18T02:21:07.041Z,102026.13
2022-12-18T02:31:16.456Z,102023.59
2022-12-18T02:41:20.931Z,102044.34
2022-12-18T02:51:31.686Z,102036.03
2022-12-18T03:01:45.319Z,102031.56
2022-12-18T03:12:14.411Z,102027.31
2022-12-18T03:22:18.494Z,102032.63
2022-12-18T03:32:31.850Z,102018.97
2022-12-18T03:42:46.068Z,102009.88
2022-12-18T03:52:57.143Z,102001.94
2022-12-18T04:03:02.937Z,101997.88
2022-12-18T04:13:13.803Z,101996.81
2022-12-18T04:23:17.659Z,102000.97
2022-12-18T04:33:22.163Z,102000.38
2022-12-18T04:43:25.309Z,101996.75
2022-12-18T04:53:29.841Z,101994.09
2022-12-18T05:03:33.418Z,101981.25
2022-12-18T05:13:40.145Z,101976.88
2022-12-18T05:23:43.616Z,101971.66
2022-12-18T05:33:48.112Z,101961.94
2022-12-18T05:43:51.252Z,101970.47
2022-12-18T05:53:55.627Z,101982.16
2022-12-18T06:03:58.599Z,102000.72
2022-12-18T06:14:04.403Z,102024.84
2022-12-18T06:24:08.217Z,102025.09
2022-12-18T06:34:12.547Z,102028.94
2022-12-18T06:44:15.623Z,102015.97
2022-12-18T06:54:20.016Z,102022.28
2022-12-18T07:04:23.032Z,102018.31
2022-12-18T07:14:27.692Z,102012.41
2022-12-18T07:24:30.747Z,102028.16
2022-12-18T07:34:35.170Z,102019.53
2022-12-18T07:44:38.600Z,102009.44
2022-12-18T07:54:43.552Z,102010.25
2022-12-18T08:04:46.547Z,101999.47
2022-12-18T08:14:50.833Z,101974.84
2022-12-18T08:24:54.075Z,101960.72
2022-12-18T08:34:58.484Z,101957.72
2022-12-18T08:45:01.404Z,101964.41
2022-12-18T08:55:06.931Z,101955.16
2022-12-18T09:05:10.962Z,101959.38
2022-12-18T09:37:52.628Z,101920.63
2022-12-18T09:47:58.346Z,101912.94
2022-12-18T09:58:08.809Z,101891.81
2022-12-18T10:08:19.472Z,101888.16
2022-12-18T10:18:27.742Z,101871.63
2022-12-18T10:28:32.672Z,101863.75
2022-12-18T10:38:36.967Z,101877.41
2022-12-18T10:48:49.513Z,101857.72
2022-12-18T10:59:01.648Z,101851.41
2022-12-18T11:09:13.177Z,101858.59
2022-12-18T11:19:39.318Z,101836.16
2022-12-18T11:29:46.551Z,101838.81
2022-12-18T11:39:59.304Z,101830.53
2022-12-18T11:50:13.362Z,101822.00
2022-12-18T12:00:20.875Z,101800.44
2022-12-18T12:10:38.379Z,101777.09
2022-12-18T12:20:52.650Z,101783.03
2022-12-18T12:31:09.670Z,101765.41
2022-12-18T12:41:31.284Z,101746.41
2022-12-18T12:51:38.077Z,101753.19
2022-12-18T13:01:55.824Z,101748.53
2022-12-18T13:12:22.358Z,101747.91
2022-12-18T13:22:38.027Z,101754.38
2022-12-18T13:32:41.046Z,101737.81
2022-12-18T13:43:03.187Z,101738.53
2022-12-18T13:53:07.500Z,101726.59
2022-12-18T14:03:22.544Z,101720.59
2022-12-18T14:13:30.087Z,101719.38
2022-12-18T14:23:36.695Z,101723.97
2022-12-18T14:33:40.677Z,101710.63
2022-12-18T14:43:46.851Z,101698.78
2022-12-18T14:53:54.834Z,101683.75
2022-12-18T15:04:01.201Z,101709.75
2022-12-18T15:14:33.909Z,101683.47
2022-12-18T15:24:38.354Z,101687.34
2022-12-18T15:34:41.446Z,101693.19
2022-12-18T15:44:45.908Z,101682.94
2022-12-18T15:55:06.673Z,101687.97
2022-12-18T16:05:18.085Z,101694.47
2022-12-18T16:15:24.444Z,101689.38
2022-12-18T16:25:30.444Z,101681.06
2022-12-18T16:35:33.442Z,101673.13
2022-12-18T16:45:37.464Z,101666.66
2022-12-18T16:55:40.417Z,101663.00
2022-12-18T17:05:48.744Z,101642.38
2022-12-18T17:15:54.556Z,101653.81
2022-12-18T17:26:01.121Z,101662.19
2022-12-18T17:36:04.438Z,101641.88
2022-12-18T17:46:09.137Z,101640.44
2022-12-18T17:56:15.605Z,101631.59
2022-12-18T18:06:20.142Z,101629.84
2022-12-18T18:16:23.156Z,101609.66
2022-12-18T18:26:29.312Z,101614.28
2022-12-18T18:36:32.895Z,101609.00
2022-12-18T18:46:37.247Z,101623.59
2022-12-18T18:57:11.779Z,101633.06
2022-12-18T19:07:04.359Z,101609.56
2022-12-18T19:17:07.440Z,101604.66
2022-12-18T19:27:12.024Z,101602.56
2022-12-18T19:37:15.092Z,101592.34
2022-12-18T19:47:20.564Z,101621.59
2022-12-18T19:57:23.804Z,101620.75
2022-12-18T20:07:28.048Z,101596.00
2022-12-18T20:17:30.867Z,101604.28
2022-12-18T20:27:36.168Z,101600.94
2022-12-18T20:37:39.322Z,101599.03
2022-12-18T20:47:47.497Z,101610.34
2022-12-18T20:57:52.830Z,101602.03
2022-12-18T21:07:57.383Z,101610.78
2022-12-18T21:18:00.383Z,101600.25
2022-12-18T21:28:05.149Z,101594.16
2022-12-18T21:38:09.167Z,101606.16
2022-12-18T21:48:13.596Z,101612.53
2022-12-18T21:58:16.653Z,101601.84
2022-12-18T22:08:20.935Z,101582.81
2022-12-18T22:18:24.052Z,101561.22
2022-12-18T22:28:45.843Z,101550.53
2022-12-18T22:38:48.947Z,101539.38
2022-12-18T22:48:53.673Z,101536.75
2022-12-18T22:58:57.155Z,101520.88
2022-12-18T23:09:02.695Z,101519.53
2022-12-18T23:19:05.740Z,101499.44
2022-12-18T23:29:10.585Z,101475.06
2022-12-18T23:39:19.255Z,101468.00
2022-12-18T23:49:34.187Z,101454.13
2022-12-18T23:59:37.197Z,101432.16
